Time;durP1;ratioP1;P1;durP2;ratioP2;P2;SDS_P1;SDS_P2;PMS_P1;PMS_P2;Temp;Humidity;BMP_temperature;BMP_pressure;BME280_temperature;BME280_humidity;BME280_pressure;Samples;Min_cycle;Max_cycle;Signal;HPM_P1;HPM_P2
2021/09/15 00:01:08;;;;;;;7.72;6.45;;;19.50;99.90;;;;;;5089732;28;20246;-87
2021/09/15 00:03:55;;;;;;;9.02;6.35;;;19.60;99.90;;;;;;5087564;28;20212;-86
2021/09/15 00:06:45;;;;;;;6.90;6.20;;;19.60;99.90;;;;;;5091536;28;20485;-87
2021/09/15 00:09:33;;;;;;;7.70;6.07;;;19.60;99.90;;;;;;5085684;28;20075;-87
2021/09/15 00:12:20;;;;;;;7.75;6.45;;;19.60;99.90;;;;;;5090602;28;20040;-87
2021/09/15 00:15:08;;;;;;;7.25;6.20;;;19.60;99.90;;;;;;5086779;28;20058;-87
2021/09/15 00:17:57;;;;;;;12.50;6.03;;;19.60;99.90;;;;;;5077769;28;20102;-87
2021/09/15 00:20:44;;;;;;;8.82;6.40;;;19.60;99.90;;;;;;5071391;28;20055;-87
2021/09/15 00:23:32;;;;;;;9.27;6.35;;;19.60;99.90;;;;;;5087567;28;20109;-86
2021/09/15 00:26:19;;;;;;;8.13;5.90;;;19.60;99.90;;;;;;5083601;28;20242;-86
2021/09/15 00:29:06;;;;;;;8.82;6.40;;;19.50;99.90;;;;;;5074913;28;20595;-87
2021/09/15 00:31:53;;;;;;;8.48;6.28;;;19.50;99.90;;;;;;5074873;28;20341;-87
2021/09/15 00:34:41;;;;;;;9.45;6.18;;;19.40;99.90;;;;;;5082561;28;20484;-86
2021/09/15 00:37:28;;;;;;;11.98;6.60;;;19.40;99.90;;;;;;5092430;28;20052;-86
2021/09/15 00:40:16;;;;;;;12.85;7.10;;;19.40;99.90;;;;;;5071006;28;20135;-87
2021/09/15 00:43:03;;;;;;;13.27;7.88;;;19.40;99.90;;;;;;5067389;28;20525;-86
2021/09/15 00:45:51;;;;;;;13.07;7.82;;;19.50;99.90;;;;;;5085055;28;20166;-86
2021/09/15 00:48:41;;;;;;;9.70;6.68;;;19.50;99.90;;;;;;5089447;28;20149;-86
2021/09/15 00:51:33;;;;;;;8.77;7.65;;;19.50;99.90;;;;;;5089925;28;20185;-87
2021/09/15 00:54:21;;;;;;;12.70;7.80;;;19.40;99.90;;;;;;5078212;28;20082;-87
2021/09/15 00:57:11;;;;;;;14.63;7.78;;;19.30;99.90;;;;;;5088116;28;20192;-86
2021/09/15 00:59:58;;;;;;;11.25;8.07;;;19.30;99.90;;;;;;5065155;28;20049;-87
2021/09/15 01:02:45;;;;;;;8.32;7.22;;;19.30;99.90;;;;;;5085983;28;20146;-87
2021/09/15 01:05:33;;;;;;;13.18;8.50;;;19.30;99.90;;;;;;5074335;28;20387;-88
2021/09/15 01:08:20;;;;;;;9.85;7.50;;;19.30;99.90;;;;;;5074667;28;20469;-86
2021/09/15 01:11:10;;;;;;;10.18;7.85;;;19.30;99.90;;;;;;5086089;28;20181;-87
2021/09/15 01:13:58;;;;;;;9.43;7.20;;;19.40;99.90;;;;;;5075029;28;20044;-88
2021/09/15 01:16:58;;;;;;;10.48;7.72;;;19.30;99.90;;;;;;5083051;28;20068;-86
2021/09/15 01:19:45;;;;;;;16.77;8.27;;;19.40;99.90;;;;;;5081765;28;20517;-87
2021/09/15 01:22:32;;;;;;;12.35;8.38;;;19.40;99.90;;;;;;5068746;28;20430;-87
2021/09/15 01:25:20;;;;;;;10.90;7.07;;;19.40;99.90;;;;;;5075916;28;20083;-87
2021/09/15 01:28:10;;;;;;;13.95;7.82;;;19.40;99.90;;;;;;5064387;28;20062;-87
2021/09/15 01:30:58;;;;;;;12.75;8.00;;;19.40;99.90;;;;;;5088251;28;20067;-87
2021/09/15 01:33:46;;;;;;;16.92;9.15;;;19.20;99.90;;;;;;5084011;28;20070;-87
2021/09/15 01:36:36;;;;;;;11.82;8.57;;;19.00;99.90;;;;;;5072272;28;20127;-88
2021/09/15 01:39:26;;;;;;;13.00;8.90;;;19.00;99.90;;;;;;5087133;28;20484;-86
2021/09/15 01:42:16;;;;;;;11.30;8.23;;;18.90;99.90;;;;;;5061636;28;20097;-88
2021/09/15 01:45:09;;;;;;;10.48;7.82;;;18.90;99.90;;;;;;5075620;28;20534;-89
2021/09/15 01:47:58;;;;;;;10.90;7.90;;;18.90;99.90;;;;;;5087858;28;20065;-88
2021/09/15 01:50:48;;;;;;;10.90;7.25;;;19.00;99.90;;;;;;5085526;28;20036;-89
2021/09/15 01:53:35;;;;;;;8.85;6.85;;;19.00;99.90;;;;;;5070225;28;20138;-87
2021/09/15 01:56:23;;;;;;;9.77;7.85;;;19.00;99.90;;;;;;5090091;28;20461;-87
2021/09/15 01:59:10;;;;;;;10.05;7.30;;;19.00;99.90;;;;;;5063337;28;20472;-87
2021/09/15 02:01:58;;;;;;;9.48;7.78;;;18.90;99.90;;;;;;5084771;28;20055;-87
2021/09/15 02:04:46;;;;;;;11.45;7.32;;;18.90;99.90;;;;;;5074878;28;20044;-87
2021/09/15 02:07:33;;;;;;;14.25;7.20;;;18.90;99.90;;;;;;5055579;28;20066;-87
2021/09/15 02:10:21;;;;;;;10.32;7.13;;;18.80;99.90;;;;;;5071287;28;20073;-86
2021/09/15 02:13:09;;;;;;;15.80;7.65;;;18.80;99.90;;;;;;5070672;28;20123;-87
2021/09/15 02:15:57;;;;;;;13.38;8.38;;;18.60;99.90;;;;;;5072236;28;20475;-88
2021/09/15 02:18:47;;;;;;;9.88;6.88;;;18.60;99.90;;;;;;5085321;28;20134;-86
2021/09/15 02:21:34;;;;;;;16.13;7.63;;;18.60;99.90;;;;;;5085176;28;20178;-87
2021/09/15 02:24:21;;;;;;;8.82;7.43;;;18.70;99.90;;;;;;5076253;28;20129;-86
2021/09/15 02:27:09;;;;;;;11.85;6.35;;;18.80;99.90;;;;;;5075992;28;20131;-87
2021/09/15 02:29:56;;;;;;;13.13;6.68;;;18.80;99.90;;;;;;5068830;28;20216;-87
2021/09/15 02:32:43;;;;;;;10.55;6.60;;;18.90;99.90;;;;;;5087477;28;20056;-87
2021/09/15 02:35:31;;;;;;;9.40;5.93;;;18.90;99.90;;;;;;5065741;28;20507;-89
2021/09/15 02:38:18;;;;;;;8.15;6.28;;;19.00;99.90;;;;;;5061082;28;20055;-87
2021/09/15 02:41:06;;;;;;;12.23;6.50;;;19.00;99.90;;;;;;5080505;28;20481;-87
2021/09/15 02:43:53;;;;;;;9.73;5.78;;;19.10;99.90;;;;;;5082627;28;20080;-87
2021/09/15 02:46:40;;;;;;;6.30;5.47;;;19.10;99.90;;;;;;5082202;28;20075;-87
2021/09/15 02:49:28;;;;;;;8.48;5.88;;;19.20;99.90;;;;;;5073847;28;20091;-87
2021/09/15 02:52:15;;;;;;;8.15;6.32;;;19.20;99.90;;;;;;5049817;28;20460;-89
2021/09/15 02:55:03;;;;;;;10.80;6.85;;;19.20;99.90;;;;;;5075374;28;20048;-87
2021/09/15 02:57:50;;;;;;;8.77;5.72;;;19.20;99.90;;;;;;5066812;28;20159;-88
2021/09/15 03:00:38;;;;;;;8.23;5.97;;;19.10;99.90;;;;;;5088386;28;20186;-87
2021/09/15 03:03:25;;;;;;;10.52;6.47;;;19.10;99.90;;;;;;5079670;28;20044;-85
2021/09/15 03:06:17;;;;;;;8.25;6.35;;;19.00;99.90;;;;;;5077008;28;20065;-86
2021/09/15 03:09:04;;;;;;;8.32;6.68;;;19.00;99.90;;;;;;5070290;28;20040;-86
2021/09/15 03:11:51;;;;;;;9.77;7.00;;;19.00;99.90;;;;;;5089681;28;20105;-86
2021/09/15 03:14:38;;;;;;;7.95;6.05;;;19.00;99.90;;;;;;5075036;28;20070;-87
2021/09/15 03:17:28;;;;;;;11.90;7.32;;;19.00;99.90;;;;;;5078848;28;20098;-86
2021/09/15 03:20:15;;;;;;;12.18;7.07;;;19.00;99.90;;;;;;5073611;28;20070;-86
2021/09/15 03:23:03;;;;;;;11.50;7.43;;;19.00;99.90;;;;;;5091140;28;20481;-87
2021/09/15 03:25:50;;;;;;;15.30;8.27;;;19.00;99.90;;;;;;5077998;28;20224;-86
2021/09/15 03:28:38;;;;;;;9.73;7.95;;;18.90;99.90;;;;;;5063613;28;20105;-88
2021/09/15 03:31:25;;;;;;;9.38;6.88;;;18.80;99.90;;;;;;5076372;28;20125;-87
2021/09/15 03:34:12;;;;;;;10.93;6.93;;;18.70;99.90;;;;;;5089517;28;20130;-87
2021/09/15 03:37:00;;;;;;;11.15;7.63;;;18.60;99.90;;;;;;5057470;28;20119;-87
2021/09/15 03:39:48;;;;;;;9.90;7.30;;;18.60;99.90;;;;;;5067208;28;20131;-87
2021/09/15 03:42:35;;;;;;;9.40;6.90;;;18.60;99.90;;;;;;5073941;28;20153;-87
2021/09/15 03:45:22;;;;;;;8.38;7.07;;;18.60;99.90;;;;;;5090108;28;20045;-87
2021/09/15 03:48:12;;;;;;;10.43;7.43;;;18.50;99.90;;;;;;5078211;28;20060;-87
2021/09/15 03:51:02;;;;;;;9.95;7.25;;;18.50;99.90;;;;;;5087895;28;20461;-87
2021/09/15 03:53:49;;;;;;;7.68;6.88;;;18.60;99.90;;;;;;5087503;28;20082;-87
2021/09/15 03:56:37;;;;;;;11.73;7.20;;;18.60;99.90;;;;;;5083893;28;20090;-87
2021/09/15 03:59:26;;;;;;;10.35;7.05;;;18.70;99.90;;;;;;5079649;28;20158;-87
2021/09/15 04:02:20;;;;;;;8.50;6.25;;;18.70;99.90;;;;;;5074027;28;20139;-86
2021/09/15 04:05:07;;;;;;;12.73;5.90;;;18.70;99.90;;;;;;5072592;28;20422;-87
2021/09/15 04:07:57;;;;;;;13.75;6.10;;;18.80;99.90;;;;;;5080338;28;20389;-89
2021/09/15 04:10:50;;;;;;;9.13;6.45;;;18.90;99.90;;;;;;5075625;28;20067;-88
2021/09/15 04:13:40;;;;;;;12.43;7.03;;;18.80;99.90;;;;;;5076957;28;20500;-91
2021/09/15 04:43:15;;;;;;;10.15;6.70;;;19.00;99.90;;;;;;4932258;29;20027;-91
2021/09/15 04:46:04;;;;;;;13.48;7.22;;;19.00;99.90;;;;;;4929199;29;20118;-89
2021/09/15 04:49:11;;;;;;;8.10;7.20;;;18.90;99.90;;;;;;4931424;29;20127;-90
2021/09/15 04:51:59;;;;;;;11.07;7.60;;;18.70;99.90;;;;;;4933260;29;20080;-90
2021/09/15 04:54:47;;;;;;;9.38;7.45;;;18.50;99.90;;;;;;4932352;29;20187;-87
2021/09/15 04:57:34;;;;;;;10.32;8.13;;;18.30;99.90;;;;;;4924611;29;20066;-88
2021/09/15 05:00:22;;;;;;;14.70;8.35;;;18.00;99.90;;;;;;4931871;29;20111;-89
2021/09/15 05:03:12;;;;;;;16.20;9.45;;;17.90;99.90;;;;;;4927287;29;20498;-89
2021/09/15 05:06:01;;;;;;;15.07;10.13;;;17.70;99.90;;;;;;4931993;29;20047;-89
2021/09/15 05:08:48;;;;;;;12.90;10.32;;;17.70;99.90;;;;;;4933742;29;20055;-88
2021/09/15 05:11:35;;;;;;;16.92;11.13;;;17.50;99.90;;;;;;4915833;29;20664;-87
2021/09/15 05:14:23;;;;;;;18.75;12.73;;;17.50;99.90;;;;;;4930108;29;20075;-92
2021/09/15 05:17:10;;;;;;;17.85;13.02;;;17.40;99.90;;;;;;4916709;29;20058;-87
2021/09/15 05:19:58;;;;;;;16.13;12.90;;;17.40;99.90;;;;;;4932300;29;20051;-88
2021/09/15 05:22:51;;;;;;;23.83;13.68;;;17.40;99.90;;;;;;4934551;28;20047;-87
2021/09/15 05:25:38;;;;;;;17.08;12.82;;;17.30;99.90;;;;;;4934469;28;20138;-92
2021/09/15 05:28:26;;;;;;;18.95;14.27;;;17.30;99.90;;;;;;4933439;29;20537;-93
2021/09/15 05:31:30;;;;;;;19.05;13.35;;;17.20;99.90;;;;;;4941601;29;20040;-94
2021/09/15 05:34:17;;;;;;;19.35;13.57;;;17.20;99.90;;;;;;4948164;28;20052;-95
2021/09/15 05:37:07;;;;;;;19.50;13.10;;;17.20;99.90;;;;;;4951273;28;20095;-95
2021/09/15 05:39:59;;;;;;;19.95;13.50;;;17.20;99.90;;;;;;4929056;29;20054;-95
2021/09/15 05:42:51;;;;;;;19.45;13.23;;;17.20;99.90;;;;;;4952924;29;20079;-95
2021/09/15 05:45:55;;;;;;;20.00;13.27;;;17.30;99.90;;;;;;4951932;29;20136;-92
2021/09/15 05:48:42;;;;;;;17.65;12.50;;;17.20;99.90;;;;;;4942480;29;20421;-93
2021/09/15 05:51:30;;;;;;;22.55;13.45;;;17.20;99.90;;;;;;4936093;29;20495;-91
2021/09/15 05:54:17;;;;;;;20.45;13.77;;;17.20;99.90;;;;;;4933223;29;20453;-90
2021/09/15 05:57:07;;;;;;;21.25;13.45;;;17.20;99.90;;;;;;4930509;29;20372;-93
2021/09/15 05:59:57;;;;;;;18.65;13.60;;;17.10;99.90;;;;;;4940410;29;20435;-92
2021/09/15 06:02:44;;;;;;;21.33;14.38;;;17.20;99.90;;;;;;4935388;29;20055;-93
2021/09/15 06:05:31;;;;;;;20.15;14.88;;;17.10;99.90;;;;;;4938671;29;20109;-91
2021/09/15 06:08:19;;;;;;;16.77;13.30;;;17.10;99.90;;;;;;4930099;29;20044;-95
2021/09/15 06:11:06;;;;;;;23.70;15.60;;;17.10;99.90;;;;;;4939381;29;20786;-92
2021/09/15 06:13:56;;;;;;;15.25;13.30;;;17.10;99.90;;;;;;4940332;29;20047;-93
2021/09/15 06:16:43;;;;;;;23.48;15.13;;;17.10;99.90;;;;;;4949884;29;20111;-90
2021/09/15 06:19:30;;;;;;;20.13;14.20;;;17.10;99.90;;;;;;4938423;29;20092;-91
2021/09/15 06:22:18;;;;;;;18.70;14.05;;;17.10;99.90;;;;;;4941312;29;20115;-90
2021/09/15 06:25:06;;;;;;;21.05;14.63;;;17.10;99.90;;;;;;4951882;29;20039;-92
2021/09/15 06:27:56;;;;;;;20.25;13.95;;;17.10;99.90;;;;;;4950111;29;20039;-92
2021/09/15 06:30:47;;;;;;;19.15;14.07;;;17.10;99.90;;;;;;4942429;29;20088;-89
2021/09/15 06:33:34;;;;;;;21.23;13.25;;;17.00;99.90;;;;;;4939225;29;20500;-93
2021/09/15 06:36:22;;;;;;;15.70;13.00;;;17.00;99.90;;;;;;4952168;28;20062;-91
2021/09/15 06:39:27;;;;;;;19.65;13.45;;;17.00;99.90;;;;;;4940568;29;20443;-91
2021/09/15 06:42:19;;;;;;;18.43;12.87;;;17.00;99.90;;;;;;4933209;29;20058;-91
2021/09/15 06:45:48;;;;;;;;;;;;;;;;;;;;;
2021/09/15 06:48:56;;;;;;;22.30;12.52;;;17.10;99.90;;;;;;4945507;28;20046;-90
2021/09/15 06:52:04;;;;;;;15.75;12.20;;;17.10;99.90;;;;;;4942370;29;20039;-91
2021/09/15 06:55:01;;;;;;;17.42;11.88;;;17.10;99.90;;;;;;4932962;29;20048;-90
2021/09/15 06:57:48;;;;;;;14.43;11.75;;;17.10;99.90;;;;;;4930410;29;20055;-90
2021/09/15 07:00:38;;;;;;;20.65;10.68;;;17.10;99.90;;;;;;4936465;29;20048;-92
2021/09/15 07:03:32;;;;;;;15.00;9.90;;;17.20;99.90;;;;;;4937913;29;20403;-92
2021/09/15 07:06:40;;;;;;;13.68;8.80;;;17.30;99.90;;;;;;4925444;29;20203;-91
2021/09/15 07:09:27;;;;;;;14.68;8.98;;;17.40;99.90;;;;;;4930547;29;20064;-90
2021/09/15 07:12:22;;;;;;;13.63;9.70;;;17.50;99.90;;;;;;4922839;29;20358;-91
2021/09/15 07:15:11;;;;;;;15.57;9.40;;;17.60;99.90;;;;;;4937720;29;20071;-92
2021/09/15 07:18:18;;;;;;;12.90;7.32;;;17.70;99.90;;;;;;4922277;29;20052;-89
2021/09/15 07:21:08;;;;;;;12.68;7.05;;;17.80;99.90;;;;;;4935393;29;20749;-90
2021/09/15 07:23:58;;;;;;;10.55;6.78;;;17.80;99.90;;;;;;4936778;29;20055;-92
2021/09/15 07:26:45;;;;;;;11.05;6.15;;;17.90;99.90;;;;;;4936546;29;20159;-91
2021/09/15 07:29:35;;;;;;;11.75;6.65;;;18.00;99.90;;;;;;4934809;29;20047;-92
2021/09/15 07:32:42;;;;;;;11.93;6.40;;;18.00;99.90;;;;;;4936498;29;20040;-90
2021/09/15 07:35:29;;;;;;;12.77;5.88;;;18.10;99.90;;;;;;4947515;29;20054;-90
2021/09/15 07:38:16;;;;;;;10.75;6.22;;;18.00;99.90;;;;;;4940925;29;20221;-92
2021/09/15 07:41:06;;;;;;;10.32;7.00;;;18.00;99.90;;;;;;4937611;29;20052;-90
2021/09/15 07:43:53;;;;;;;11.85;7.85;;;17.90;99.90;;;;;;4928862;29;20453;-93
2021/09/15 07:46:43;;;;;;;15.63;9.13;;;17.90;99.90;;;;;;4947687;29;20043;-93
2021/09/15 07:49:31;;;;;;;16.42;7.85;;;17.90;99.90;;;;;;4938947;29;20040;-91
2021/09/15 07:52:18;;;;;;;14.80;7.53;;;17.90;99.90;;;;;;4926309;29;20108;-90
2021/09/15 07:55:06;;;;;;;17.45;8.52;;;17.90;99.90;;;;;;4946093;29;20055;-92
2021/09/15 07:57:57;;;;;;;13.40;8.07;;;17.90;99.90;;;;;;4951470;29;20079;-92
2021/09/15 08:00:44;;;;;;;9.77;7.97;;;17.80;99.90;;;;;;4950730;29;20127;-92
2021/09/15 08:03:31;;;;;;;12.23;9.18;;;17.80;99.90;;;;;;4948352;29;20078;-92
2021/09/15 08:06:19;;;;;;;13.88;9.23;;;17.80;99.90;;;;;;4942772;29;20052;-91
2021/09/15 08:09:07;;;;;;;10.60;8.02;;;17.80;99.90;;;;;;4949824;29;20043;-92
2021/09/15 08:11:54;;;;;;;12.18;9.15;;;17.80;99.90;;;;;;4952230;29;20051;-92
2021/09/15 08:14:46;;;;;;;13.60;9.70;;;17.80;99.90;;;;;;4942869;29;20130;-92
2021/09/15 08:17:40;;;;;;;13.68;9.80;;;17.80;99.90;;;;;;4947711;29;20055;-93
2021/09/15 08:20:32;;;;;;;13.18;10.27;;;17.70;99.90;;;;;;4924678;29;20051;-93
2021/09/15 08:23:22;;;;;;;15.43;10.63;;;17.70;99.90;;;;;;4939612;29;20198;-92
2021/09/15 08:26:12;;;;;;;11.88;9.15;;;17.70;99.90;;;;;;4939642;29;20059;-93
2021/09/15 08:28:59;;;;;;;15.48;10.73;;;17.60;99.90;;;;;;4950363;29;20047;-93
2021/09/15 08:31:47;;;;;;;18.55;10.80;;;17.60;99.90;;;;;;4939218;29;20496;-91
2021/09/15 08:34:35;;;;;;;13.50;10.50;;;17.50;99.90;;;;;;4920925;29;20202;-92
2021/09/15 08:37:22;;;;;;;19.50;11.80;;;17.40;99.90;;;;;;4935223;29;20150;-93
2021/09/15 08:40:10;;;;;;;16.67;11.63;;;17.30;99.90;;;;;;4931344;29;20070;-91
2021/09/15 08:43:03;;;;;;;14.32;8.93;;;17.30;99.90;;;;;;4928721;29;20141;-92
2021/09/15 08:45:50;;;;;;;11.95;8.02;;;17.30;99.90;;;;;;4927183;29;20083;-93
2021/09/15 08:48:42;;;;;;;11.98;7.85;;;17.30;99.90;;;;;;4940053;29;20054;-93
2021/09/15 08:51:30;;;;;;;14.10;7.65;;;17.20;99.90;;;;;;4943703;29;20074;-94
2021/09/15 08:54:18;;;;;;;12.23;7.55;;;17.20;99.90;;;;;;4941535;29;20102;-94
2021/09/15 08:57:05;;;;;;;9.55;6.97;;;17.20;99.90;;;;;;4927110;29;20044;-93
2021/09/15 08:59:57;;;;;;;14.05;8.70;;;17.20;99.90;;;;;;4937298;29;20075;-94
2021/09/15 09:02:52;;;;;;;12.98;7.70;;;17.20;99.90;;;;;;4933854;29;20051;-92
2021/09/15 09:05:39;;;;;;;11.68;6.60;;;17.10;99.90;;;;;;4935909;29;20056;-94
2021/09/15 09:08:27;;;;;;;14.75;7.28;;;17.10;99.90;;;;;;4946995;29;20122;-94
2021/09/15 09:11:14;;;;;;;11.18;7.57;;;17.00;99.90;;;;;;4937828;29;20059;-94
2021/09/15 09:14:07;;;;;;;10.73;6.90;;;16.90;99.90;;;;;;4939924;29;20119;-92
2021/09/15 09:16:55;;;;;;;9.60;7.45;;;16.90;99.90;;;;;;4939147;29;20071;-93
2021/09/15 09:19:43;;;;;;;14.35;7.82;;;16.90;99.90;;;;;;4958458;29;21520;-92
2021/09/15 09:22:33;;;;;;;19.05;7.70;;;16.90;99.90;;;;;;4956949;29;20039;-93
2021/09/15 09:25:22;;;;;;;11.23;7.97;;;16.90;99.90;;;;;;4952465;29;20115;-93
2021/09/15 09:28:36;;;;;;;13.25;7.75;;;17.00;99.90;;;;;;4942453;29;20095;-94
2021/09/15 09:31:23;;;;;;;14.85;7.97;;;17.00;99.90;;;;;;4943441;29;20137;-94
2021/09/15 09:34:13;;;;;;;11.25;7.65;;;17.00;99.90;;;;;;4945537;29;20178;-95
2021/09/15 09:37:02;;;;;;;12.73;6.75;;;17.10;99.90;;;;;;4938258;29;20071;-94
2021/09/15 09:39:55;;;;;;;10.77;6.38;;;17.20;99.90;;;;;;4951444;29;20078;-95
2021/09/15 09:42:42;;;;;;;9.93;6.82;;;17.40;99.90;;;;;;4952527;29;20143;-94
2021/09/15 09:45:29;;;;;;;7.97;7.07;;;17.70;99.90;;;;;;4948389;29;20115;-90
2021/09/15 09:48:41;;;;;;;8.85;6.40;;;17.90;99.90;;;;;;4933918;29;20047;-94
2021/09/15 09:51:38;;;;;;;10.18;6.10;;;18.20;99.90;;;;;;4945650;29;20126;-95
2021/09/15 09:54:27;;;;;;;9.70;5.57;;;18.50;99.90;;;;;;4943752;29;20458;-92
2021/09/15 09:57:15;;;;;;;8.55;5.53;;;18.60;99.90;;;;;;4943333;29;20075;-94
2021/09/15 10:00:06;;;;;;;11.23;5.82;;;18.60;99.90;;;;;;4947023;29;20422;-93
2021/09/15 10:02:55;;;;;;;6.90;5.55;;;18.60;99.90;;;;;;4947018;29;20058;-93
2021/09/15 10:05:46;;;;;;;12.02;6.07;;;18.60;99.90;;;;;;4945080;29;20040;-93
2021/09/15 10:08:37;;;;;;;8.90;5.00;;;18.70;99.90;;;;;;4947234;29;20095;-93
2021/09/15 10:11:24;;;;;;;11.45;6.22;;;18.80;99.90;;;;;;4927818;29;20049;-92
2021/09/15 10:14:19;;;;;;;10.23;5.95;;;18.90;99.90;;;;;;4933089;29;20044;-89
2021/09/15 10:17:13;;;;;;;7.85;5.40;;;19.20;99.90;;;;;;4936011;29;20091;-89
2021/09/15 10:20:03;;;;;;;8.82;5.32;;;19.30;99.90;;;;;;4926163;29;20087;-88
2021/09/15 10:22:50;;;;;;;9.15;5.45;;;19.20;99.90;;;;;;4935518;29;20142;-87
2021/09/15 10:25:39;;;;;;;7.65;5.13;;;19.10;99.90;;;;;;4937342;29;20130;-89
2021/09/15 10:28:27;;;;;;;8.77;5.95;;;19.00;99.90;;;;;;4940909;29;20055;-89
2021/09/15 10:31:49;;;;;;;7.70;5.05;;;19.10;99.90;;;;;;4937409;29;20116;-88
2021/09/15 10:34:37;;;;;;;9.00;6.13;;;19.00;99.90;;;;;;4937839;29;20048;-89
2021/09/15 10:37:31;;;;;;;12.80;6.50;;;18.90;99.90;;;;;;4932714;29;20047;-88
2021/09/15 10:40:30;;;;;;;10.80;6.53;;;18.80;99.90;;;;;;4933709;29;20051;-90
2021/09/15 10:43:41;;;;;;;8.05;5.63;;;18.90;99.90;;;;;;4938554;29;20129;-89
2021/09/15 10:46:29;;;;;;;9.85;6.68;;;19.00;99.90;;;;;;4942182;29;20043;-87
2021/09/15 10:49:21;;;;;;;9.63;6.57;;;19.10;99.90;;;;;;4931574;29;20151;-90
2021/09/15 10:52:09;;;;;;;9.75;5.97;;;19.10;99.90;;;;;;4935829;29;20106;-93
2021/09/15 10:54:58;;;;;;;11.63;5.90;;;19.20;99.90;;;;;;4940804;29;20492;-89
2021/09/15 10:57:49;;;;;;;12.43;5.88;;;19.30;99.90;;;;;;4934504;29;20111;-91
2021/09/15 11:00:54;;;;;;;11.23;6.40;;;19.30;99.90;;;;;;4927789;29;20108;-92
2021/09/15 11:03:53;;;;;;;10.07;5.88;;;19.30;99.90;;;;;;4932922;29;20039;-92
2021/09/15 11:07:10;;;;;;;10.43;6.40;;;19.30;99.90;;;;;;4933521;29;20494;-90
2021/09/15 11:10:03;;;;;;;11.35;6.32;;;19.30;99.90;;;;;;4924188;29;20192;-92
2021/09/15 11:12:50;;;;;;;7.13;5.60;;;19.30;99.90;;;;;;4934850;29;20048;-91
2021/09/15 11:15:41;;;;;;;10.77;5.88;;;19.50;99.90;;;;;;4932305;29;20626;-89
2021/09/15 11:18:28;;;;;;;8.60;6.40;;;19.50;99.90;;;;;;4929926;29;20048;-85
2021/09/15 11:21:19;;;;;;;10.00;5.93;;;19.50;99.90;;;;;;4933086;29;20051;-92
2021/09/15 11:24:31;;;;;;;9.18;6.32;;;19.40;99.90;;;;;;4936557;29;20050;-90
2021/09/15 11:27:20;;;;;;;6.93;6.10;;;19.40;99.90;;;;;;4936852;29;20175;-91
2021/09/15 11:30:08;;;;;;;13.20;6.32;;;19.30;99.90;;;;;;4935690;29;20127;-92
2021/09/15 11:33:23;;;;;;;10.65;6.45;;;19.20;99.90;;;;;;4943540;29;20126;-93
2021/09/15 11:36:16;;;;;;;11.85;6.60;;;19.00;99.90;;;;;;4934701;29;20057;-91
2021/09/15 11:39:06;;;;;;;9.77;6.38;;;19.00;99.90;;;;;;4932969;29;20066;-88
2021/09/15 11:42:02;;;;;;;9.27;6.72;;;18.90;99.90;;;;;;4934985;29;20058;-93
2021/09/15 11:45:18;;;;;;;7.93;6.15;;;19.00;99.90;;;;;;4936899;29;20056;-92
2021/09/15 11:48:28;;;;;;;7.10;5.50;;;19.20;99.90;;;;;;4930168;29;20044;-93
2021/09/15 11:51:21;;;;;;;9.23;5.38;;;19.50;99.90;;;;;;4940119;29;20047;-93
2021/09/15 11:54:14;;;;;;;9.23;5.75;;;19.60;99.90;;;;;;4935182;29;20047;-92
2021/09/15 11:57:05;;;;;;;10.05;6.05;;;19.50;99.90;;;;;;4935457;29;20059;-91
2021/09/15 11:59:53;;;;;;;10.10;5.83;;;19.50;99.90;;;;;;4939016;29;20075;-93
2021/09/15 12:02:44;;;;;;;11.27;6.13;;;19.60;99.90;;;;;;4933282;29;20051;-93
2021/09/15 12:05:32;;;;;;;8.13;6.20;;;19.60;99.90;;;;;;4944644;29;20051;-92
2021/09/15 12:08:21;;;;;;;10.00;6.03;;;19.60;99.90;;;;;;4953303;29;20056;-93
2021/09/15 12:11:09;;;;;;;7.40;5.68;;;19.50;99.90;;;;;;4942151;29;20096;-92
2021/09/15 12:13:58;;;;;;;9.45;5.60;;;19.60;99.90;;;;;;4937178;29;20067;-93
2021/09/15 12:16:49;;;;;;;7.30;5.25;;;19.70;99.90;;;;;;4938546;28;20135;-93
2021/09/15 12:19:47;;;;;;;10.02;6.32;;;19.70;99.90;;;;;;4931900;29;20155;-91
2021/09/15 12:22:39;;;;;;;6.63;5.47;;;19.80;99.90;;;;;;4937217;29;20048;-90
2021/09/15 12:25:26;;;;;;;8.55;4.53;;;20.00;99.90;;;;;;4939783;29;20803;-92
2021/09/15 12:28:21;;;;;;;12.02;5.20;;;20.20;99.90;;;;;;4939169;29;20510;-93
2021/09/15 12:31:18;;;;;;;6.28;5.05;;;20.40;99.90;;;;;;4940269;29;20120;-92
2021/09/15 12:34:13;;;;;;;7.07;4.72;;;20.60;99.90;;;;;;4953733;29;20044;-90
2021/09/15 12:37:19;;;;;;;7.78;5.05;;;20.80;99.90;;;;;;4940026;29;20145;-94
2021/09/15 12:40:16;;;;;;;8.10;4.30;;;21.10;99.90;;;;;;4937871;29;20502;-91
2021/09/15 12:43:10;;;;;;;8.30;4.43;;;21.40;99.90;;;;;;4936049;29;20130;-93
2021/09/15 12:46:02;;;;;;;6.35;4.18;;;21.50;99.90;;;;;;4953092;29;20087;-91
2021/09/15 12:48:49;;;;;;;5.50;4.30;;;21.50;99.90;;;;;;4930034;29;20171;-92
2021/09/15 12:51:36;;;;;;;7.40;4.00;;;21.70;99.90;;;;;;4934322;29;20122;-89
2021/09/15 12:54:24;;;;;;;9.40;4.18;;;22.10;99.90;;;;;;4935172;29;20183;-90
2021/09/15 12:57:28;;;;;;;7.25;4.50;;;22.20;99.90;;;;;;4931667;29;20086;-91
2021/09/15 13:00:31;;;;;;;7.28;4.00;;;22.40;99.90;;;;;;4929598;29;20176;-90
2021/09/15 13:03:18;;;;;;;;;;;22.60;99.90;;;;;;4935944;29;20142;-91
2021/09/15 13:06:06;;;;;;;4.63;3.60;;;23.00;99.90;;;;;;4931777;29;20438;-90
2021/09/15 13:08:54;;;;;;;6.43;4.00;;;23.50;99.90;;;;;;4943911;29;20074;-90
2021/09/15 13:11:44;;;;;;;6.18;3.95;;;23.30;99.90;;;;;;4932843;29;20043;-89
2021/09/15 13:14:34;;;;;;;5.00;3.60;;;23.90;99.90;;;;;;4924196;29;20051;-90
2021/09/15 13:17:22;;;;;;;8.55;4.38;;;24.60;99.90;;;;;;4921903;29;20067;-93
2021/09/15 13:20:17;;;;;;;9.00;3.80;;;23.50;99.90;;;;;;4932093;29;20508;-90
2021/09/15 13:23:06;;;;;;;6.18;4.43;;;22.70;99.90;;;;;;4932878;29;20047;-92
2021/09/15 13:25:58;;;;;;;6.47;4.32;;;21.90;99.90;;;;;;4931718;29;20040;-91
2021/09/15 13:28:45;;;;;;;5.82;4.20;;;21.40;99.90;;;;;;4944029;29;20083;-93
2021/09/15 13:31:36;;;;;;;8.43;4.22;;;21.10;99.90;;;;;;4933525;29;20070;-91
2021/09/15 13:34:26;;;;;;;7.15;4.05;;;21.10;99.90;;;;;;4933002;29;20054;-93
2021/09/15 13:37:13;;;;;;;8.88;4.40;;;21.10;99.90;;;;;;4930977;29;20087;-91
2021/09/15 13:40:01;;;;;;;5.90;3.88;;;21.20;99.90;;;;;;4929343;29;20502;-92
2021/09/15 13:42:48;;;;;;;7.13;4.05;;;21.50;99.90;;;;;;4934295;29;20142;-92
2021/09/15 13:45:36;;;;;;;6.05;4.10;;;21.80;99.90;;;;;;4930702;29;20103;-90
2021/09/15 13:48:23;;;;;;;5.68;4.05;;;21.90;99.90;;;;;;4941291;29;20106;-92
2021/09/15 13:51:12;;;;;;;5.65;4.03;;;21.70;99.90;;;;;;4932011;29;20171;-93
2021/09/15 13:53:59;;;;;;;6.65;3.85;;;21.50;99.90;;;;;;4936011;29;20091;-92
2021/09/15 13:56:47;;;;;;;5.03;4.00;;;21.30;99.90;;;;;;4935637;29;20059;-92
2021/09/15 13:59:35;;;;;;;5.53;4.30;;;21.10;99.90;;;;;;4936749;29;20062;-92
2021/09/15 14:02:29;;;;;;;8.75;5.03;;;21.10;99.90;;;;;;4933820;29;20134;-92
2021/09/15 14:05:16;;;;;;;6.75;4.47;;;21.00;99.90;;;;;;4934804;29;20096;-91
2021/09/15 14:08:04;;;;;;;4.78;3.90;;;21.10;99.90;;;;;;4927618;29;20055;-92
2021/09/15 14:10:51;;;;;;;4.97;3.80;;;21.00;99.90;;;;;;4929204;29;20044;-91
2021/09/15 14:13:38;;;;;;;7.50;3.92;;;20.90;99.90;;;;;;4933403;29;20043;-92
2021/09/15 14:16:25;;;;;;;7.05;4.25;;;20.70;99.90;;;;;;4931603;29;20542;-92
2021/09/15 14:19:17;;;;;;;4.78;4.00;;;20.70;99.90;;;;;;4933417;29;20146;-92
2021/09/15 14:22:07;;;;;;;6.85;4.45;;;20.70;99.90;;;;;;4932588;29;20040;-91
2021/09/15 14:25:00;;;;;;;7.55;4.32;;;20.70;99.90;;;;;;4927223;29;20048;-91
2021/09/15 14:27:47;;;;;;;5.95;3.90;;;20.70;99.90;;;;;;4927500;29;20139;-89
2021/09/15 14:30:36;;;;;;;4.65;3.85;;;20.60;99.90;;;;;;4931658;29;20071;-90
2021/09/15 14:33:24;;;;;;;7.40;4.07;;;20.50;99.90;;;;;;4931621;29;20048;-90
2021/09/15 14:36:11;;;;;;;8.38;4.38;;;20.50;99.90;;;;;;4930522;29;20119;-89
2021/09/15 14:38:58;;;;;;;8.25;4.35;;;20.50;99.90;;;;;;4931560;29;20082;-90
2021/09/15 14:41:46;;;;;;;7.40;4.53;;;20.30;99.90;;;;;;4935805;29;20103;-89
2021/09/15 14:44:33;;;;;;;5.97;4.90;;;20.30;99.90;;;;;;4931543;29;20043;-89
2021/09/15 14:47:21;;;;;;;5.70;4.30;;;20.20;99.90;;;;;;4925379;29;20043;-90
2021/09/15 14:50:09;;;;;;;5.30;4.68;;;20.20;99.90;;;;;;4942289;29;20039;-91
2021/09/15 14:52:56;;;;;;;6.93;4.00;;;20.10;99.90;;;;;;4925465;29;20048;-91
2021/09/15 14:55:44;;;;;;;6.78;4.80;;;20.00;99.90;;;;;;4934557;29;20135;-91
2021/09/15 14:58:31;;;;;;;9.48;4.80;;;20.00;99.90;;;;;;4938696;29;20044;-90
2021/09/15 15:01:19;;;;;;;6.25;4.53;;;19.80;99.90;;;;;;4937721;29;20040;-90
2021/09/15 15:04:07;;;;;;;8.23;4.97;;;19.80;99.90;;;;;;4934555;29;20171;-92
2021/09/15 15:06:54;;;;;;;7.80;5.00;;;19.80;99.90;;;;;;4947608;28;20110;-90